createdAt,value
2022-09-03T00:05:08.371Z,17.90
2022-09-03T00:11:07.365Z,17.90
2022-09-03T00:17:06.123Z,17.70
2022-09-03T00:23:02.870Z,17.70
2022-09-03T00:29:04.028Z,17.70
2022-09-03T00:35:02.809Z,17.60
2022-09-03T00:41:07.162Z,17.50
2022-09-03T00:47:09.702Z,17.60
2022-09-03T00:53:13.861Z,17.50
2022-09-03T00:59:16.510Z,17.40
2022-09-03T01:05:18.649Z,17.40
2022-09-03T01:11:27.126Z,17.30
2022-09-03T01:17:32.262Z,17.40
2022-09-03T01:23:58.358Z,17.30
2022-09-03T01:29:59.480Z,17.40
2022-09-03T01:36:01.745Z,17.30
2022-09-03T01:42:16.420Z,17.10
2022-09-03T01:48:34.015Z,17.20
2022-09-03T01:54:43.574Z,17.10
2022-09-03T02:00:41.173Z,17.00
2022-09-03T02:06:36.821Z,17.10
2022-09-03T02:12:34.082Z,17.10
2022-09-03T02:18:31.239Z,17.00
2022-09-03T02:24:26.939Z,17.20
2022-09-03T02:30:20.423Z,17.10
2022-09-03T02:36:16.572Z,16.90
2022-09-03T02:42:13.529Z,16.80
2022-09-03T02:48:06.839Z,17.00
2022-09-03T02:54:00.247Z,16.70
2022-09-03T02:59:54.919Z,16.80
2022-09-03T03:05:51.561Z,16.90
2022-09-03T03:11:44.974Z,16.60
2022-09-03T03:17:39.693Z,16.60
2022-09-03T03:23:33.316Z,16.70
2022-09-03T03:29:26.514Z,16.60
2022-09-03T03:35:20.976Z,16.70
2022-09-03T03:41:17.390Z,16.60
2022-09-03T03:47:10.774Z,16.50
2022-09-03T03:53:05.496Z,16.50
2022-09-03T03:59:00.571Z,16.20
2022-09-03T04:04:53.935Z,16.30
2022-09-03T04:10:48.906Z,16.30
2022-09-03T04:16:42.400Z,16.30
2022-09-03T04:22:35.792Z,16.10
2022-09-03T04:28:30.445Z,16.10
2022-09-03T04:34:23.561Z,16.10
2022-09-03T04:40:17.377Z,16.20
2022-09-03T04:46:16.361Z,16.00
2022-09-03T04:52:11.221Z,16.00
2022-09-03T04:58:04.559Z,16.10
2022-09-03T05:04:00.043Z,16.10
2022-09-03T05:09:53.411Z,16.00
2022-09-03T05:15:47.017Z,16.00
2022-09-03T05:21:41.699Z,16.00
2022-09-03T05:27:35.003Z,15.90
2022-09-03T05:33:28.409Z,16.00
2022-09-03T05:39:22.935Z,16.00
2022-09-03T05:45:16.107Z,16.00
2022-09-03T05:51:11.405Z,16.10
2022-09-03T05:57:06.299Z,16.20
2022-09-03T06:03:00.138Z,16.20
2022-09-03T06:08:53.797Z,16.10
2022-09-03T06:14:48.550Z,16.20
2022-09-03T06:20:41.502Z,16.10
2022-09-03T06:26:35.142Z,16.10
2022-09-03T06:32:29.903Z,16.10
2022-09-03T06:38:23.349Z,16.10
2022-09-03T06:44:16.780Z,16.20
2022-09-03T06:50:11.959Z,16.20
2022-09-03T06:56:07.778Z,16.30
2022-09-03T07:02:04.173Z,16.40
2022-09-03T07:07:58.654Z,16.50
2022-09-03T07:13:53.639Z,16.50
2022-09-03T07:19:47.228Z,16.60
2022-09-03T07:25:41.905Z,16.80
2022-09-03T07:31:36.968Z,16.90
2022-09-03T07:37:30.384Z,17.00
2022-09-03T07:43:24.976Z,17.30
2022-09-03T07:49:18.344Z,17.40
2022-09-03T07:55:12.027Z,17.50
2022-09-03T08:01:11.286Z,17.70
2022-09-03T08:07:04.913Z,17.80
2022-09-03T08:12:58.560Z,18.00
2022-09-03T08:18:53.718Z,18.00
2022-09-03T08:24:46.787Z,18.30
2022-09-03T08:30:40.184Z,18.30
2022-09-03T08:36:36.619Z,18.50
2022-09-03T08:42:40.828Z,18.70
2022-09-03T08:48:35.735Z,19.00
2022-09-03T08:54:32.612Z,19.10
2022-09-03T09:00:26.532Z,19.30
2022-09-03T09:06:25.861Z,19.50
2022-09-03T09:12:41.392Z,19.50
2022-09-03T09:18:55.103Z,19.70
2022-09-03T09:24:49.879Z,19.60
2022-09-03T09:30:47.771Z,19.90
2022-09-03T09:36:46.677Z,20.20
2022-09-03T09:42:40.958Z,20.50
2022-09-03T09:48:41.306Z,20.70
2022-09-03T09:54:34.638Z,20.80
2022-09-03T10:00:27.982Z,21.10
2022-09-03T10:06:42.187Z,21.00
2022-09-03T10:12:42.149Z,21.20
2022-09-03T10:18:45.402Z,21.40
2022-09-03T10:24:51.030Z,21.60
2022-09-03T10:31:01.660Z,21.90
2022-09-03T10:37:06.425Z,22.40
2022-09-03T10:43:20.215Z,22.60
2022-09-03T10:49:28.190Z,22.60
2022-09-03T10:55:26.898Z,23.00
2022-09-03T11:01:31.131Z,23.30
2022-09-03T11:07:28.732Z,23.10
2022-09-03T11:13:26.553Z,23.40
2022-09-03T11:19:28.648Z,23.40
2022-09-03T11:25:33.086Z,23.70
2022-09-03T11:31:36.782Z,23.60
2022-09-03T11:37:32.322Z,23.10
2022-09-03T11:43:30.538Z,23.20
2022-09-03T11:49:32.124Z,23.30
2022-09-03T11:55:38.349Z,23.60
2022-09-03T12:01:48.472Z,23.60
2022-09-03T12:07:55.473Z,23.60
2022-09-03T12:13:58.529Z,24.20
2022-09-03T12:19:54.670Z,24.60
2022-09-03T12:25:48.817Z,24.90
2022-09-03T12:31:50.629Z,24.40
2022-09-03T12:44:02.709Z,24.70
2022-09-03T12:50:00.178Z,25.20
2022-09-03T12:55:57.379Z,25.40
2022-09-03T13:01:53.518Z,25.00
2022-09-03T13:07:52.948Z,24.10
2022-09-03T13:13:58.723Z,24.00
2022-09-03T13:20:17.878Z,23.80
2022-09-03T13:26:22.507Z,23.70
2022-09-03T13:32:27.220Z,24.10
2022-09-03T13:38:28.853Z,24.40
2022-09-03T13:44:36.599Z,24.90
2022-09-03T13:50:39.358Z,24.50
2022-09-03T13:56:50.314Z,24.40
2022-09-03T14:02:57.369Z,24.70
2022-09-03T14:09:01.949Z,25.20
2022-09-03T14:15:00.401Z,25.30
2022-09-03T14:21:00.591Z,25.50
2022-09-03T14:26:57.258Z,25.60
2022-09-03T14:32:58.337Z,26.00
2022-09-03T14:39:27.788Z,25.90
2022-09-03T14:45:39.526Z,25.90
2022-09-03T14:51:52.361Z,25.70
2022-09-03T14:58:04.763Z,25.90
2022-09-03T15:04:27.097Z,25.70
2022-09-03T15:10:29.380Z,25.20
2022-09-03T15:16:36.915Z,24.70
2022-09-03T15:22:46.772Z,24.50
2022-09-03T15:28:59.558Z,24.40
2022-09-03T15:35:07.342Z,24.30
2022-09-03T15:41:08.110Z,24.20
2022-09-03T15:47:13.929Z,24.20
2022-09-03T15:53:31.101Z,24.10
2022-09-03T15:59:34.942Z,23.70
2022-09-03T16:05:42.974Z,23.40
2022-09-03T16:11:41.932Z,23.30
2022-09-03T16:17:40.001Z,23.30
2022-09-03T16:23:38.914Z,23.20
2022-09-03T16:29:33.786Z,23.10
2022-09-03T16:35:39.070Z,23.00
2022-09-03T16:41:37.774Z,22.90
2022-09-03T16:47:42.884Z,22.90
2022-09-03T16:54:02.970Z,22.70
2022-09-03T17:00:08.647Z,22.60
2022-09-03T17:06:43.923Z,22.40
2022-09-03T17:12:49.790Z,22.40
2022-09-03T17:18:52.719Z,22.30
2022-09-03T17:25:04.117Z,22.20
2022-09-03T17:30:59.538Z,22.10
2022-09-03T17:37:03.313Z,22.00
2022-09-03T17:43:01.544Z,21.90
2022-09-03T17:48:55.988Z,21.90
2022-09-03T17:54:52.431Z,21.80
2022-09-03T18:00:55.530Z,21.70
2022-09-03T18:06:56.450Z,21.60
2022-09-03T18:13:03.546Z,21.60
2022-09-03T18:19:05.006Z,21.40
2022-09-03T18:25:19.170Z,21.30
2022-09-03T18:31:34.229Z,21.20
2022-09-03T18:37:47.541Z,21.10
2022-09-03T18:44:07.306Z,21.00
2022-09-03T18:50:25.013Z,20.90
2022-09-03T18:56:46.828Z,20.70
2022-09-03T19:03:11.542Z,20.50
2022-09-03T19:09:33.757Z,20.40
2022-09-03T19:15:49.651Z,20.30
2022-09-03T19:22:06.665Z,20.10
2022-09-03T19:28:30.161Z,20.20
2022-09-03T19:35:07.315Z,20.10
2022-09-03T19:41:31.266Z,20.10
2022-09-03T19:47:51.488Z,20.00
2022-09-03T19:54:06.482Z,19.90
2022-09-03T20:00:18.301Z,19.80
2022-09-03T20:06:42.102Z,19.80
2022-09-03T20:12:39.754Z,19.60
2022-09-03T20:18:44.166Z,19.60
2022-09-03T20:24:49.333Z,19.60
2022-09-03T20:30:49.356Z,19.50
2022-09-03T20:36:49.749Z,19.30
2022-09-03T20:43:18.118Z,19.30
2022-09-03T20:49:21.318Z,19.20
2022-09-03T20:55:22.561Z,19.00
2022-09-03T21:01:22.691Z,19.00
2022-09-03T21:07:23.336Z,19.00
2022-09-03T21:13:27.947Z,19.10
2022-09-03T21:19:29.369Z,19.10
2022-09-03T21:25:28.551Z,19.00
2022-09-03T21:31:30.257Z,18.90
2022-09-03T21:37:26.306Z,18.70
2022-09-03T21:43:26.021Z,18.60
2022-09-03T21:49:27.371Z,18.70
2022-09-03T21:55:23.796Z,18.50
2022-09-03T22:01:26.185Z,18.60
2022-09-03T22:07:28.162Z,18.60
2022-09-03T22:13:30.479Z,18.40
2022-09-03T22:19:25.166Z,18.40
2022-09-03T22:25:25.233Z,18.30
2022-09-03T22:31:27.839Z,18.30
2022-09-03T22:37:33.909Z,18.20
2022-09-03T22:43:39.903Z,18.20
2022-09-03T22:49:44.129Z,18.20
2022-09-03T22:55:42.419Z,18.20
2022-09-03T23:01:42.634Z,18.10
2022-09-03T23:07:46.341Z,18.10
2022-09-03T23:13:45.825Z,18.00
2022-09-03T23:19:41.930Z,18.10
2022-09-03T23:25:39.253Z,18.20
2022-09-03T23:31:34.773Z,17.90
2022-09-03T23:37:47.319Z,17.90
2022-09-03T23:44:19.017Z,17.80
2022-09-03T23:50:32.734Z,17.90
2022-09-03T23:56:50.996Z,17.90
